sensor_id;sensor_type;location;lat;lon;timestamp;P1;durP1;ratioP1;P2;durP2;ratioP2
37288;SDS011;23174;49.462;11.000;2023-05-19T00:00:18;4.43;;;2.15;;
37288;SDS011;23174;49.462;11.000;2023-05-19T00:02:19;4.78;;;2.17;;
37288;SDS011;23174;49.462;11.000;2023-05-19T00:04:20;3.55;;;1.77;;
37288;SDS011;23174;49.462;11.000;2023-05-19T00:06:22;4.22;;;1.95;;
37288;SDS011;23174;49.462;11.000;2023-05-19T00:08:25;2.83;;;1.55;;
37288;SDS011;23174;49.462;11.000;2023-05-19T00:10:30;6.13;;;1.92;;
37288;SDS011;23174;49.462;11.000;2023-05-19T00:12:31;3.75;;;1.75;;
37288;SDS011;23174;49.462;11.000;2023-05-19T00:14:32;4.00;;;2.20;;
37288;SDS011;23174;49.462;11.000;2023-05-19T00:16:33;2.20;;;1.70;;
37288;SDS011;23174;49.462;11.000;2023-05-19T00:18:35;5.95;;;2.28;;
37288;SDS011;23174;49.462;11.000;2023-05-19T00:20:35;3.75;;;1.92;;
37288;SDS011;23174;49.462;11.000;2023-05-19T00:22:36;3.83;;;1.52;;
37288;SDS011;23174;49.462;11.000;2023-05-19T00:24:37;4.00;;;2.00;;
37288;SDS011;23174;49.462;11.000;2023-05-19T00:26:37;6.03;;;1.58;;
37288;SDS011;23174;49.462;11.000;2023-05-19T00:28:38;4.72;;;1.92;;
37288;SDS011;23174;49.462;11.000;2023-05-19T00:30:38;4.55;;;1.85;;
37288;SDS011;23174;49.462;11.000;2023-05-19T00:32:39;6.13;;;1.95;;
37288;SDS011;23174;49.462;11.000;2023-05-19T00:34:39;3.25;;;1.90;;
37288;SDS011;23174;49.462;11.000;2023-05-19T00:36:40;3.42;;;1.92;;
37288;SDS011;23174;49.462;11.000;2023-05-19T00:38:41;2.45;;;1.80;;
37288;SDS011;23174;49.462;11.000;2023-05-19T00:40:41;7.22;;;1.70;;
37288;SDS011;23174;49.462;11.000;2023-05-19T00:42:42;3.45;;;1.67;;
37288;SDS011;23174;49.462;11.000;2023-05-19T00:44:42;2.38;;;1.70;;
37288;SDS011;23174;49.462;11.000;2023-05-19T00:46:43;2.83;;;1.83;;
37288;SDS011;23174;49.462;11.000;2023-05-19T00:48:43;4.05;;;1.65;;
37288;SDS011;23174;49.462;11.000;2023-05-19T00:50:44;2.75;;;1.63;;
37288;SDS011;23174;49.462;11.000;2023-05-19T00:52:45;2.55;;;1.95;;
37288;SDS011;23174;49.462;11.000;2023-05-19T00:54:45;2.45;;;1.75;;
37288;SDS011;23174;49.462;11.000;2023-05-19T00:56:46;2.88;;;1.60;;
37288;SDS011;23174;49.462;11.000;2023-05-19T00:58:50;3.63;;;1.90;;
37288;SDS011;23174;49.462;11.000;2023-05-19T01:00:50;4.18;;;2.10;;
37288;SDS011;23174;49.462;11.000;2023-05-19T01:02:51;2.65;;;1.65;;
37288;SDS011;23174;49.462;11.000;2023-05-19T01:04:53;4.55;;;2.10;;
37288;SDS011;23174;49.462;11.000;2023-05-19T01:06:55;4.90;;;1.88;;
37288;SDS011;23174;49.462;11.000;2023-05-19T01:08:56;3.03;;;1.90;;
37288;SDS011;23174;49.462;11.000;2023-05-19T01:10:57;5.88;;;2.17;;
37288;SDS011;23174;49.462;11.000;2023-05-19T01:12:59;2.95;;;1.50;;
37288;SDS011;23174;49.462;11.000;2023-05-19T01:15:00;3.75;;;1.90;;
37288;SDS011;23174;49.462;11.000;2023-05-19T01:17:11;5.90;;;1.85;;
37288;SDS011;23174;49.462;11.000;2023-05-19T01:31:50;2.97;;;1.83;;
37288;SDS011;23174;49.462;11.000;2023-05-19T01:33:54;4.53;;;2.00;;
37288;SDS011;23174;49.462;11.000;2023-05-19T01:35:56;2.55;;;1.88;;
37288;SDS011;23174;49.462;11.000;2023-05-19T01:37:58;3.72;;;1.67;;
37288;SDS011;23174;49.462;11.000;2023-05-19T01:39:59;7.32;;;2.30;;
37288;SDS011;23174;49.462;11.000;2023-05-19T01:42:00;4.72;;;1.83;;
37288;SDS011;23174;49.462;11.000;2023-05-19T01:44:02;2.45;;;1.67;;
37288;SDS011;23174;49.462;11.000;2023-05-19T01:46:03;4.35;;;1.90;;
37288;SDS011;23174;49.462;11.000;2023-05-19T01:48:05;3.60;;;2.05;;
37288;SDS011;23174;49.462;11.000;2023-05-19T01:50:06;2.35;;;1.90;;
37288;SDS011;23174;49.462;11.000;2023-05-19T01:52:07;4.90;;;2.15;;
37288;SDS011;23174;49.462;11.000;2023-05-19T01:54:08;4.18;;;1.90;;
37288;SDS011;23174;49.462;11.000;2023-05-19T01:56:08;3.05;;;1.60;;
37288;SDS011;23174;49.462;11.000;2023-05-19T01:58:23;3.13;;;1.98;;
37288;SDS011;23174;49.462;11.000;2023-05-19T02:05:08;3.20;;;1.38;;
37288;SDS011;23174;49.462;11.000;2023-05-19T02:07:22;4.18;;;1.95;;
37288;SDS011;23174;49.462;11.000;2023-05-19T02:11:53;3.60;;;1.92;;
37288;SDS011;23174;49.462;11.000;2023-05-19T02:14:00;2.90;;;1.57;;
37288;SDS011;23174;49.462;11.000;2023-05-19T02:16:05;4.95;;;2.00;;
37288;SDS011;23174;49.462;11.000;2023-05-19T02:18:08;4.05;;;1.65;;
37288;SDS011;23174;49.462;11.000;2023-05-19T02:20:10;3.55;;;1.83;;
37288;SDS011;23174;49.462;11.000;2023-05-19T02:22:11;3.63;;;1.70;;
37288;SDS011;23174;49.462;11.000;2023-05-19T02:24:11;3.50;;;1.73;;
37288;SDS011;23174;49.462;11.000;2023-05-19T02:26:12;2.67;;;1.80;;
37288;SDS011;23174;49.462;11.000;2023-05-19T02:28:12;3.17;;;1.83;;
37288;SDS011;23174;49.462;11.000;2023-05-19T02:30:13;3.13;;;1.85;;
37288;SDS011;23174;49.462;11.000;2023-05-19T02:32:13;4.22;;;1.85;;
37288;SDS011;23174;49.462;11.000;2023-05-19T02:34:14;3.58;;;1.50;;
37288;SDS011;23174;49.462;11.000;2023-05-19T02:36:15;7.28;;;1.63;;
37288;SDS011;23174;49.462;11.000;2023-05-19T02:38:15;3.22;;;1.48;;
37288;SDS011;23174;49.462;11.000;2023-05-19T02:40:17;9.30;;;1.70;;
37288;SDS011;23174;49.462;11.000;2023-05-19T02:42:17;5.82;;;2.03;;
37288;SDS011;23174;49.462;11.000;2023-05-19T02:44:18;3.72;;;1.65;;
37288;SDS011;23174;49.462;11.000;2023-05-19T02:46:18;4.85;;;1.90;;
37288;SDS011;23174;49.462;11.000;2023-05-19T02:48:19;2.88;;;1.75;;
37288;SDS011;23174;49.462;11.000;2023-05-19T02:50:19;4.07;;;1.77;;
37288;SDS011;23174;49.462;11.000;2023-05-19T02:52:21;6.07;;;1.65;;
37288;SDS011;23174;49.462;11.000;2023-05-19T02:54:21;3.38;;;1.75;;
37288;SDS011;23174;49.462;11.000;2023-05-19T02:56:22;1.77;;;1.63;;
37288;SDS011;23174;49.462;11.000;2023-05-19T02:58:22;4.53;;;2.38;;
37288;SDS011;23174;49.462;11.000;2023-05-19T03:00:23;5.07;;;1.70;;
37288;SDS011;23174;49.462;11.000;2023-05-19T03:02:23;4.25;;;2.00;;
37288;SDS011;23174;49.462;11.000;2023-05-19T03:04:24;2.80;;;1.73;;
37288;SDS011;23174;49.462;11.000;2023-05-19T03:06:24;3.33;;;1.63;;
37288;SDS011;23174;49.462;11.000;2023-05-19T03:08:25;7.05;;;2.35;;
37288;SDS011;23174;49.462;11.000;2023-05-19T03:10:25;2.78;;;1.65;;
37288;SDS011;23174;49.462;11.000;2023-05-19T03:12:26;5.05;;;2.30;;
37288;SDS011;23174;49.462;11.000;2023-05-19T03:14:26;4.50;;;1.73;;
37288;SDS011;23174;49.462;11.000;2023-05-19T03:16:26;5.47;;;2.05;;
37288;SDS011;23174;49.462;11.000;2023-05-19T03:18:27;3.42;;;1.58;;
37288;SDS011;23174;49.462;11.000;2023-05-19T03:20:28;2.83;;;1.75;;
37288;SDS011;23174;49.462;11.000;2023-05-19T03:22:29;4.07;;;2.20;;
37288;SDS011;23174;49.462;11.000;2023-05-19T03:24:29;2.92;;;1.98;;
37288;SDS011;23174;49.462;11.000;2023-05-19T03:26:30;5.20;;;2.00;;
37288;SDS011;23174;49.462;11.000;2023-05-19T03:28:31;4.28;;;1.73;;
37288;SDS011;23174;49.462;11.000;2023-05-19T03:30:31;7.25;;;2.05;;
37288;SDS011;23174;49.462;11.000;2023-05-19T03:32:32;2.80;;;2.10;;
37288;SDS011;23174;49.462;11.000;2023-05-19T03:34:32;2.72;;;1.92;;
37288;SDS011;23174;49.462;11.000;2023-05-19T03:36:34;3.53;;;1.70;;
37288;SDS011;23174;49.462;11.000;2023-05-19T03:38:38;2.78;;;1.90;;
37288;SDS011;23174;49.462;11.000;2023-05-19T03:40:39;4.93;;;2.25;;
37288;SDS011;23174;49.462;11.000;2023-05-19T03:42:40;5.03;;;1.90;;
37288;SDS011;23174;49.462;11.000;2023-05-19T03:44:40;2.92;;;1.67;;
37288;SDS011;23174;49.462;11.000;2023-05-19T03:46:41;2.58;;;2.03;;
37288;SDS011;23174;49.462;11.000;2023-05-19T03:48:41;3.60;;;1.77;;
37288;SDS011;23174;49.462;11.000;2023-05-19T03:50:42;2.40;;;1.67;;
37288;SDS011;23174;49.462;11.000;2023-05-19T03:52:43;3.92;;;2.25;;
37288;SDS011;23174;49.462;11.000;2023-05-19T03:54:45;9.02;;;2.30;;
37288;SDS011;23174;49.462;11.000;2023-05-19T03:56:45;3.03;;;1.95;;
37288;SDS011;23174;49.462;11.000;2023-05-19T03:58:46;4.55;;;1.92;;
37288;SDS011;23174;49.462;11.000;2023-05-19T04:00:47;3.22;;;1.70;;
37288;SDS011;23174;49.462;11.000;2023-05-19T04:02:47;7.00;;;1.92;;
37288;SDS011;23174;49.462;11.000;2023-05-19T04:04:48;6.28;;;2.22;;
37288;SDS011;23174;49.462;11.000;2023-05-19T04:06:49;3.20;;;1.63;;
37288;SDS011;23174;49.462;11.000;2023-05-19T04:08:50;7.57;;;1.85;;
37288;SDS011;23174;49.462;11.000;2023-05-19T04:10:50;2.78;;;1.63;;
37288;SDS011;23174;49.462;11.000;2023-05-19T04:12:51;4.70;;;2.20;;
37288;SDS011;23174;49.462;11.000;2023-05-19T04:14:51;3.05;;;2.10;;
37288;SDS011;23174;49.462;11.000;2023-05-19T04:16:52;4.70;;;2.10;;
37288;SDS011;23174;49.462;11.000;2023-05-19T04:18:53;5.13;;;2.15;;
37288;SDS011;23174;49.462;11.000;2023-05-19T04:20:53;2.58;;;1.67;;
37288;SDS011;23174;49.462;11.000;2023-05-19T04:22:54;4.68;;;1.85;;
37288;SDS011;23174;49.462;11.000;2023-05-19T04:24:54;5.40;;;1.88;;
37288;SDS011;23174;49.462;11.000;2023-05-19T04:26:55;3.15;;;1.60;;
37288;SDS011;23174;49.462;11.000;2023-05-19T04:28:55;4.65;;;2.08;;
37288;SDS011;23174;49.462;11.000;2023-05-19T04:30:56;3.03;;;1.80;;
37288;SDS011;23174;49.462;11.000;2023-05-19T04:32:57;3.58;;;2.25;;
37288;SDS011;23174;49.462;11.000;2023-05-19T04:34:59;4.63;;;1.80;;
37288;SDS011;23174;49.462;11.000;2023-05-19T04:37:02;4.30;;;2.00;;
37288;SDS011;23174;49.462;11.000;2023-05-19T04:39:03;5.72;;;2.13;;
37288;SDS011;23174;49.462;11.000;2023-05-19T04:41:08;3.65;;;2.17;;
37288;SDS011;23174;49.462;11.000;2023-05-19T04:43:09;3.22;;;2.22;;
37288;SDS011;23174;49.462;11.000;2023-05-19T04:45:10;3.45;;;2.22;;
37288;SDS011;23174;49.462;11.000;2023-05-19T04:47:12;4.35;;;2.15;;
37288;SDS011;23174;49.462;11.000;2023-05-19T04:49:14;5.80;;;1.77;;
37288;SDS011;23174;49.462;11.000;2023-05-19T04:51:14;4.40;;;1.77;;
37288;SDS011;23174;49.462;11.000;2023-05-19T04:53:16;4.80;;;2.30;;
37288;SDS011;23174;49.462;11.000;2023-05-19T04:55:17;6.55;;;1.90;;
37288;SDS011;23174;49.462;11.000;2023-05-19T04:57:17;9.48;;;2.33;;
37288;SDS011;23174;49.462;11.000;2023-05-19T04:59:18;5.70;;;2.42;;
37288;SDS011;23174;49.462;11.000;2023-05-19T05:01:18;2.55;;;2.13;;
37288;SDS011;23174;49.462;11.000;2023-05-19T05:03:21;5.95;;;2.40;;
37288;SDS011;23174;49.462;11.000;2023-05-19T05:05:22;8.15;;;2.40;;
37288;SDS011;23174;49.462;11.000;2023-05-19T05:07:23;3.40;;;2.13;;
37288;SDS011;23174;49.462;11.000;2023-05-19T05:09:23;10.25;;;2.10;;
37288;SDS011;23174;49.462;11.000;2023-05-19T05:11:24;5.20;;;2.15;;
37288;SDS011;23174;49.462;11.000;2023-05-19T05:13:25;3.88;;;1.80;;
37288;SDS011;23174;49.462;11.000;2023-05-19T05:15:26;2.72;;;1.98;;
37288;SDS011;23174;49.462;11.000;2023-05-19T05:17:28;4.38;;;2.28;;
37288;SDS011;23174;49.462;11.000;2023-05-19T05:19:29;8.07;;;2.88;;
37288;SDS011;23174;49.462;11.000;2023-05-19T05:21:30;5.25;;;2.05;;
37288;SDS011;23174;49.462;11.000;2023-05-19T05:23:31;2.50;;;1.80;;
37288;SDS011;23174;49.462;11.000;2023-05-19T05:25:32;3.80;;;2.20;;
37288;SDS011;23174;49.462;11.000;2023-05-19T05:27:33;4.90;;;2.30;;
37288;SDS011;23174;49.462;11.000;2023-05-19T05:29:33;4.28;;;2.30;;
37288;SDS011;23174;49.462;11.000;2023-05-19T05:31:34;2.60;;;2.03;;
37288;SDS011;23174;49.462;11.000;2023-05-19T05:33:36;5.45;;;2.20;;
37288;SDS011;23174;49.462;11.000;2023-05-19T05:35:37;5.25;;;2.08;;
37288;SDS011;23174;49.462;11.000;2023-05-19T05:37:37;4.32;;;2.28;;
37288;SDS011;23174;49.462;11.000;2023-05-19T05:39:38;4.05;;;1.98;;
37288;SDS011;23174;49.462;11.000;2023-05-19T05:41:38;3.97;;;2.47;;
37288;SDS011;23174;49.462;11.000;2023-05-19T05:43:39;8.27;;;2.60;;
37288;SDS011;23174;49.462;11.000;2023-05-19T05:45:40;2.88;;;1.80;;
37288;SDS011;23174;49.462;11.000;2023-05-19T05:47:40;6.10;;;2.75;;
37288;SDS011;23174;49.462;11.000;2023-05-19T05:49:41;4.40;;;2.08;;
37288;SDS011;23174;49.462;11.000;2023-05-19T05:51:42;3.85;;;1.80;;
37288;SDS011;23174;49.462;11.000;2023-05-19T05:53:43;3.50;;;2.42;;
37288;SDS011;23174;49.462;11.000;2023-05-19T05:55:50;4.47;;;2.30;;
37288;SDS011;23174;49.462;11.000;2023-05-19T05:57:52;6.20;;;2.30;;
37288;SDS011;23174;49.462;11.000;2023-05-19T05:59:53;9.05;;;2.28;;
37288;SDS011;23174;49.462;11.000;2023-05-19T06:01:54;4.68;;;2.00;;
37288;SDS011;23174;49.462;11.000;2023-05-19T06:03:54;3.13;;;1.88;;
37288;SDS011;23174;49.462;11.000;2023-05-19T06:05:55;8.93;;;2.50;;
37288;SDS011;23174;49.462;11.000;2023-05-19T06:07:55;8.18;;;2.22;;
37288;SDS011;23174;49.462;11.000;2023-05-19T06:09:56;6.57;;;2.80;;
37288;SDS011;23174;49.462;11.000;2023-05-19T06:11:56;6.40;;;2.38;;
37288;SDS011;23174;49.462;11.000;2023-05-19T06:13:58;3.17;;;1.95;;
37288;SDS011;23174;49.462;11.000;2023-05-19T06:15:58;4.57;;;2.10;;
37288;SDS011;23174;49.462;11.000;2023-05-19T06:17:59;5.45;;;2.10;;
37288;SDS011;23174;49.462;11.000;2023-05-19T06:19:59;5.28;;;2.22;;
37288;SDS011;23174;49.462;11.000;2023-05-19T06:22:01;4.50;;;2.13;;
37288;SDS011;23174;49.462;11.000;2023-05-19T06:24:01;5.82;;;2.55;;
37288;SDS011;23174;49.462;11.000;2023-05-19T06:26:02;6.22;;;2.40;;
37288;SDS011;23174;49.462;11.000;2023-05-19T06:28:02;4.70;;;2.30;;
37288;SDS011;23174;49.462;11.000;2023-05-19T06:30:03;7.57;;;2.10;;
37288;SDS011;23174;49.462;11.000;2023-05-19T06:32:04;4.90;;;2.25;;
37288;SDS011;23174;49.462;11.000;2023-05-19T06:34:04;3.72;;;2.05;;
37288;SDS011;23174;49.462;11.000;2023-05-19T06:36:05;9.10;;;2.45;;
37288;SDS011;23174;49.462;11.000;2023-05-19T06:38:07;6.28;;;2.05;;
37288;SDS011;23174;49.462;11.000;2023-05-19T06:40:07;7.70;;;2.15;;
37288;SDS011;23174;49.462;11.000;2023-05-19T06:42:09;6.65;;;2.00;;
37288;SDS011;23174;49.462;11.000;2023-05-19T06:44:09;4.85;;;2.30;;
37288;SDS011;23174;49.462;11.000;2023-05-19T06:46:10;5.13;;;2.10;;
37288;SDS011;23174;49.462;11.000;2023-05-19T06:48:11;6.00;;;2.50;;
37288;SDS011;23174;49.462;11.000;2023-05-19T06:50:12;3.80;;;2.03;;
37288;SDS011;23174;49.462;11.000;2023-05-19T06:52:13;7.85;;;2.75;;
37288;SDS011;23174;49.462;11.000;2023-05-19T06:54:13;4.75;;;2.20;;
37288;SDS011;23174;49.462;11.000;2023-05-19T06:56:14;7.32;;;2.33;;
37288;SDS011;23174;49.462;11.000;2023-05-19T06:58:15;12.00;;;2.85;;
37288;SDS011;23174;49.462;11.000;2023-05-19T07:00:16;6.25;;;2.97;;
37288;SDS011;23174;49.462;11.000;2023-05-19T07:02:17;5.43;;;2.30;;
37288;SDS011;23174;49.462;11.000;2023-05-19T07:04:18;9.20;;;2.55;;
37288;SDS011;23174;49.462;11.000;2023-05-19T07:06:18;4.65;;;2.50;;
37288;SDS011;23174;49.462;11.000;2023-05-19T07:08:18;6.22;;;2.40;;
37288;SDS011;23174;49.462;11.000;2023-05-19T07:10:19;4.55;;;2.28;;
37288;SDS011;23174;49.462;11.000;2023-05-19T07:12:20;4.97;;;2.33;;
37288;SDS011;23174;49.462;11.000;2023-05-19T07:14:21;4.43;;;2.58;;
37288;SDS011;23174;49.462;11.000;2023-05-19T07:16:22;5.78;;;2.42;;
37288;SDS011;23174;49.462;11.000;2023-05-19T07:18:22;5.57;;;2.83;;
37288;SDS011;23174;49.462;11.000;2023-05-19T07:20:24;7.15;;;2.45;;
37288;SDS011;23174;49.462;11.000;2023-05-19T07:22:24;4.35;;;2.20;;
37288;SDS011;23174;49.462;11.000;2023-05-19T07:24:25;4.70;;;2.45;;
37288;SDS011;23174;49.462;11.000;2023-05-19T07:26:26;7.85;;;2.92;;
37288;SDS011;23174;49.462;11.000;2023-05-19T07:28:27;5.43;;;2.40;;
37288;SDS011;23174;49.462;11.000;2023-05-19T07:30:28;5.03;;;2.53;;
37288;SDS011;23174;49.462;11.000;2023-05-19T07:32:28;6.40;;;2.50;;
37288;SDS011;23174;49.462;11.000;2023-05-19T07:34:29;5.10;;;2.30;;
37288;SDS011;23174;49.462;11.000;2023-05-19T07:36:29;4.80;;;2.30;;
37288;SDS011;23174;49.462;11.000;2023-05-19T07:38:30;3.53;;;2.42;;
37288;SDS011;23174;49.462;11.000;2023-05-19T07:40:33;7.03;;;2.58;;
37288;SDS011;23174;49.462;11.000;2023-05-19T07:42:33;5.78;;;2.55;;
37288;SDS011;23174;49.462;11.000;2023-05-19T07:44:34;3.97;;;2.53;;
37288;SDS011;23174;49.462;11.000;2023-05-19T07:46:38;5.30;;;2.22;;
37288;SDS011;23174;49.462;11.000;2023-05-19T07:48:38;2.70;;;1.83;;
37288;SDS011;23174;49.462;11.000;2023-05-19T07:50:39;6.63;;;2.17;;
37288;SDS011;23174;49.462;11.000;2023-05-19T07:52:39;2.85;;;2.03;;
37288;SDS011;23174;49.462;11.000;2023-05-19T07:54:40;6.53;;;2.00;;
37288;SDS011;23174;49.462;11.000;2023-05-19T07:56:40;3.05;;;1.85;;
37288;SDS011;23174;49.462;11.000;2023-05-19T07:58:41;5.53;;;2.22;;
37288;SDS011;23174;49.462;11.000;2023-05-19T08:00:41;4.97;;;2.10;;
37288;SDS011;23174;49.462;11.000;2023-05-19T08:02:42;3.55;;;1.83;;
37288;SDS011;23174;49.462;11.000;2023-05-19T08:04:43;3.03;;;2.05;;
37288;SDS011;23174;49.462;11.000;2023-05-19T08:06:43;2.15;;;1.42;;
37288;SDS011;23174;49.462;11.000;2023-05-19T08:08:44;4.82;;;1.92;;
37288;SDS011;23174;49.462;11.000;2023-05-19T08:10:45;5.30;;;1.58;;
37288;SDS011;23174;49.462;11.000;2023-05-19T08:12:45;3.05;;;1.67;;
37288;SDS011;23174;49.462;11.000;2023-05-19T08:14:46;3.33;;;1.73;;
37288;SDS011;23174;49.462;11.000;2023-05-19T08:16:46;2.75;;;1.70;;
37288;SDS011;23174;49.462;11.000;2023-05-19T08:18:47;3.13;;;1.67;;
37288;SDS011;23174;49.462;11.000;2023-05-19T08:20:48;4.85;;;2.00;;
37288;SDS011;23174;49.462;11.000;2023-05-19T08:22:48;2.17;;;1.67;;
37288;SDS011;23174;49.462;11.000;2023-05-19T08:24:49;3.05;;;1.85;;
37288;SDS011;23174;49.462;11.000;2023-05-19T08:26:50;2.30;;;1.85;;
37288;SDS011;23174;49.462;11.000;2023-05-19T08:28:51;2.00;;;1.77;;
37288;SDS011;23174;49.462;11.000;2023-05-19T08:30:51;5.13;;;1.73;;
37288;SDS011;23174;49.462;11.000;2023-05-19T08:32:52;8.85;;;1.73;;
37288;SDS011;23174;49.462;11.000;2023-05-19T08:34:52;2.40;;;1.70;;
37288;SDS011;23174;49.462;11.000;2023-05-19T08:36:53;3.65;;;1.90;;
37288;SDS011;23174;49.462;11.000;2023-05-19T08:38:56;4.78;;;2.08;;
37288;SDS011;23174;49.462;11.000;2023-05-19T08:40:57;2.78;;;1.52;;
37288;SDS011;23174;49.462;11.000;2023-05-19T08:42:57;5.47;;;2.00;;
37288;SDS011;23174;49.462;11.000;2023-05-19T08:44:58;4.28;;;2.03;;
37288;SDS011;23174;49.462;11.000;2023-05-19T08:47:00;3.17;;;1.73;;
37288;SDS011;23174;49.462;11.000;2023-05-19T08:49:04;2.28;;;1.58;;
37288;SDS011;23174;49.462;11.000;2023-05-19T08:51:19;3.03;;;1.90;;
37288;SDS011;23174;49.462;11.000;2023-05-19T08:53:26;2.08;;;1.83;;
37288;SDS011;23174;49.462;11.000;2023-05-19T08:55:46;3.92;;;1.52;;
37288;SDS011;23174;49.462;11.000;2023-05-19T08:57:53;2.03;;;1.75;;
37288;SDS011;23174;49.462;11.000;2023-05-19T08:59:55;3.25;;;1.60;;
37288;SDS011;23174;49.462;11.000;2023-05-19T09:01:57;4.18;;;1.60;;
37288;SDS011;23174;49.462;11.000;2023-05-19T09:03:58;3.47;;;1.70;;
37288;SDS011;23174;49.462;11.000;2023-05-19T09:06:03;3.90;;;2.30;;
37288;SDS011;23174;49.462;11.000;2023-05-19T09:08:05;4.28;;;1.65;;
37288;SDS011;23174;49.462;11.000;2023-05-19T09:10:05;2.40;;;1.73;;
37288;SDS011;23174;49.462;11.000;2023-05-19T09:12:10;2.55;;;1.80;;
37288;SDS011;23174;49.462;11.000;2023-05-19T09:14:12;2.55;;;1.63;;
37288;SDS011;23174;49.462;11.000;2023-05-19T09:16:12;2.67;;;2.05;;
37288;SDS011;23174;49.462;11.000;2023-05-19T09:18:13;2.63;;;1.55;;
37288;SDS011;23174;49.462;11.000;2023-05-19T09:20:14;3.45;;;1.90;;
37288;SDS011;23174;49.462;11.000;2023-05-19T09:22:16;3.88;;;1.50;;
37288;SDS011;23174;49.462;11.000;2023-05-19T09:24:18;2.75;;;1.92;;
37288;SDS011;23174;49.462;11.000;2023-05-19T09:26:18;2.10;;;1.85;;
37288;SDS011;23174;49.462;11.000;2023-05-19T09:28:25;6.43;;;1.83;;
37288;SDS011;23174;49.462;11.000;2023-05-19T09:30:28;2.55;;;1.80;;
37288;SDS011;23174;49.462;11.000;2023-05-19T09:32:28;2.60;;;1.80;;
37288;SDS011;23174;49.462;11.000;2023-05-19T09:34:30;3.95;;;1.85;;
37288;SDS011;23174;49.462;11.000;2023-05-19T09:36:31;2.00;;;1.85;;
37288;SDS011;23174;49.462;11.000;2023-05-19T09:38:31;3.70;;;1.95;;
37288;SDS011;23174;49.462;11.000;2023-05-19T09:40:32;3.95;;;1.83;;
37288;SDS011;23174;49.462;11.000;2023-05-19T09:42:32;4.63;;;2.17;;
37288;SDS011;23174;49.462;11.000;2023-05-19T09:44:36;6.22;;;1.83;;
37288;SDS011;23174;49.462;11.000;2023-05-19T09:46:36;2.35;;;1.85;;
37288;SDS011;23174;49.462;11.000;2023-05-19T09:48:37;6.07;;;1.83;;
37288;SDS011;23174;49.462;11.000;2023-05-19T09:50:38;2.33;;;1.90;;
37288;SDS011;23174;49.462;11.000;2023-05-19T09:52:39;3.67;;;1.90;;
37288;SDS011;23174;49.462;11.000;2023-05-19T09:54:43;3.38;;;1.90;;
37288;SDS011;23174;49.462;11.000;2023-05-19T09:56:44;1.88;;;1.60;;
37288;SDS011;23174;49.462;11.000;2023-05-19T09:58:44;3.45;;;1.88;;
37288;SDS011;23174;49.462;11.000;2023-05-19T10:00:45;2.35;;;1.45;;
37288;SDS011;23174;49.462;11.000;2023-05-19T10:02:46;3.35;;;1.60;;
37288;SDS011;23174;49.462;11.000;2023-05-19T10:04:49;4.15;;;2.20;;
37288;SDS011;23174;49.462;11.000;2023-05-19T10:06:51;3.00;;;1.70;;
37288;SDS011;23174;49.462;11.000;2023-05-19T10:08:53;1.95;;;1.75;;
37288;SDS011;23174;49.462;11.000;2023-05-19T10:10:54;3.00;;;1.70;;
37288;SDS011;23174;49.462;11.000;2023-05-19T10:12:55;1.67;;;1.58;;
37288;SDS011;23174;49.462;11.000;2023-05-19T10:14:57;3.22;;;2.00;;
37288;SDS011;23174;49.462;11.000;2023-05-19T10:16:58;1.60;;;1.50;;
37288;SDS011;23174;49.462;11.000;2023-05-19T10:18:59;2.78;;;1.45;;
37288;SDS011;23174;49.462;11.000;2023-05-19T10:21:00;5.32;;;1.73;;
37288;SDS011;23174;49.462;11.000;2023-05-19T10:23:01;4.72;;;1.80;;
37288;SDS011;23174;49.462;11.000;2023-05-19T10:25:03;1.77;;;1.67;;
37288;SDS011;23174;49.462;11.000;2023-05-19T10:27:09;3.40;;;1.85;;
37288;SDS011;23174;49.462;11.000;2023-05-19T10:29:13;2.08;;;1.67;;
37288;SDS011;23174;49.462;11.000;2023-05-19T10:31:18;1.80;;;1.70;;
37288;SDS011;23174;49.462;11.000;2023-05-19T10:33:20;4.28;;;1.88;;
37288;SDS011;23174;49.462;11.000;2023-05-19T10:45:29;3.22;;;1.52;;
37288;SDS011;23174;49.462;11.000;2023-05-19T10:47:35;2.67;;;1.90;;
37288;SDS011;23174;49.462;11.000;2023-05-19T10:49:35;2.25;;;1.80;;
37288;SDS011;23174;49.462;11.000;2023-05-19T10:51:36;4.53;;;2.00;;
37288;SDS011;23174;49.462;11.000;2023-05-19T10:53:39;2.15;;;1.90;;
37288;SDS011;23174;49.462;11.000;2023-05-19T10:55:46;3.03;;;1.55;;
37288;SDS011;23174;49.462;11.000;2023-05-19T11:00:01;4.15;;;1.50;;
37288;SDS011;23174;49.462;11.000;2023-05-19T11:02:10;2.10;;;1.90;;
37288;SDS011;23174;49.462;11.000;2023-05-19T11:04:44;2.97;;;2.08;;
37288;SDS011;23174;49.462;11.000;2023-05-19T11:06:49;1.88;;;1.50;;
37288;SDS011;23174;49.462;11.000;2023-05-19T11:08:51;4.85;;;2.30;;
37288;SDS011;23174;49.462;11.000;2023-05-19T11:11:13;8.02;;;1.80;;
37288;SDS011;23174;49.462;11.000;2023-05-19T11:13:21;2.63;;;1.75;;
37288;SDS011;23174;49.462;11.000;2023-05-19T11:17:28;2.03;;;1.58;;
37288;SDS011;23174;49.462;11.000;2023-05-19T11:19:29;1.45;;;0.20;;
37288;SDS011;23174;49.462;11.000;2023-05-19T11:22:32;0.28;;;0.22;;
37288;SDS011;23174;49.462;11.000;2023-05-19T11:24:07;0.30;;;0.22;;
37288;SDS011;23174;49.462;11.000;2023-05-19T11:26:08;0.32;;;0.30;;
37288;SDS011;23174;49.462;11.000;2023-05-19T11:28:09;0.10;;;0.10;;
37288;SDS011;23174;49.462;11.000;2023-05-19T11:30:13;1.13;;;0.65;;
37288;SDS011;23174;49.462;11.000;2023-05-19T11:32:16;0.77;;;0.77;;
37288;SDS011;23174;49.462;11.000;2023-05-19T11:34:19;0.10;;;0.10;;
37288;SDS011;23174;49.462;11.000;2023-05-19T11:36:19;1.27;;;0.75;;
37288;SDS011;23174;49.462;11.000;2023-05-19T11:38:22;1.55;;;1.10;;
37288;SDS011;23174;49.462;11.000;2023-05-19T11:40:22;1.77;;;1.67;;
37288;SDS011;23174;49.462;11.000;2023-05-19T11:42:24;3.70;;;1.77;;
37288;SDS011;23174;49.462;11.000;2023-05-19T11:44:25;4.78;;;1.80;;
37288;SDS011;23174;49.462;11.000;2023-05-19T11:46:25;2.20;;;1.75;;
37288;SDS011;23174;49.462;11.000;2023-05-19T11:48:28;3.30;;;1.77;;
37288;SDS011;23174;49.462;11.000;2023-05-19T11:50:29;3.50;;;1.90;;
37288;SDS011;23174;49.462;11.000;2023-05-19T11:52:30;2.40;;;1.65;;
37288;SDS011;23174;49.462;11.000;2023-05-19T11:54:31;2.63;;;1.88;;
37288;SDS011;23174;49.462;11.000;2023-05-19T11:56:38;2.50;;;1.83;;
37288;SDS011;23174;49.462;11.000;2023-05-19T11:58:40;2.03;;;1.83;;
37288;SDS011;23174;49.462;11.000;2023-05-19T12:00:41;2.78;;;1.75;;
37288;SDS011;23174;49.462;11.000;2023-05-19T12:02:44;2.17;;;1.98;;
37288;SDS011;23174;49.462;11.000;2023-05-19T12:04:45;9.45;;;1.50;;
37288;SDS011;23174;49.462;11.000;2023-05-19T12:06:49;4.05;;;2.13;;
37288;SDS011;23174;49.462;11.000;2023-05-19T12:08:51;3.28;;;2.25;;
37288;SDS011;23174;49.462;11.000;2023-05-19T12:10:53;2.63;;;1.67;;
37288;SDS011;23174;49.462;11.000;2023-05-19T12:12:55;1.63;;;1.52;;
37288;SDS011;23174;49.462;11.000;2023-05-19T12:14:56;1.17;;;1.00;;
37288;SDS011;23174;49.462;11.000;2023-05-19T12:16:57;1.30;;;1.20;;
37288;SDS011;23174;49.462;11.000;2023-05-19T12:18:58;0.90;;;0.80;;
37288;SDS011;23174;49.462;11.000;2023-05-19T12:20:58;1.50;;;1.00;;
37288;SDS011;23174;49.462;11.000;2023-05-19T12:22:59;3.53;;;1.00;;
37288;SDS011;23174;49.462;11.000;2023-05-19T12:25:01;1.17;;;1.05;;
37288;SDS011;23174;49.462;11.000;2023-05-19T12:27:04;1.00;;;0.90;;
37288;SDS011;23174;49.462;11.000;2023-05-19T12:29:12;1.00;;;1.00;;
37288;SDS011;23174;49.462;11.000;2023-05-19T12:31:13;1.10;;;1.00;;
37288;SDS011;23174;49.462;11.000;2023-05-19T12:33:14;1.67;;;1.42;;
37288;SDS011;23174;49.462;11.000;2023-05-19T12:35:15;1.05;;;0.95;;